Terminal Aerodrome Forecast
Issued by NWS

Home | Current Version | Previous Version | Text Only | Print | Product List | Glossary On
Versions: 1 2 3 4 5 6 7 8 9 10 11 12 13 14
577
FTUS46 KLOX 121145
TAFSBP
TAF
KSBP 121145Z 1212/1312 VRB03KT 1/4SM FG VV001
     FM121600 VRB03KT 2SM BR BKN003
     FM121700 VRB03KT P6SM BKN200
     FM122100 32010KT P6SM BKN200
     FM130100 VRB03KT 1SM BR BKN003
     FM130800 VRB03KT 2SM BR OVC005=

USA.gov is the U.S. government's official web portal to all federal, state and local government web resources and services.